Asswan, Egypt

9:48 AM EET on December 03, 2016 (GMT +0200)
Aswan International | | Change Station

Elev 636 ft 23.96 °N, 32.82 °E | Updated 48 minutes ago

Clear
Clear
59 °F
Feels Like 59 °F
N
10
Wind Variable Wind from North

Today
High -- | Low -- °F
--% Chance of Precip.
Yesterday
High -- | Low -- °F
Precip. -- in
Pressure 30.18 in
Visibility -9999.0 miles
Clouds
Dew Point 41 °F
Humidity 51%
Rainfall 0.00 in
Snow Depth Not available.
6:16 AM 5:01 PM
Waxing Crescent, 13% visible
METAR HESN 030700Z 36009KT CAVOK 15/05 Q1022 NOSIG
Pressure 30.18 in
Visibility -9999.0 miles
Clouds
Dew Point 41 °F
Humidity 51%
Rainfall 0.00 in
Snow Depth Not available.
6:16 AM 5:01 PM
Waxing Crescent, 13% visible
METAR HESN 030700Z 36009KT CAVOK 15/05 Q1022 NOSIG

10-Day Weather Forecast

No radar image for this location.
×

Almanac

Astronomy

Dec. 03, 2016 Rise Set
Actual Time
Civil Twilight
Nautical Twilight
Astronomical Twilight
Moon
Length of Visible Light
Length of Day
Tomorrow will be .
, % of the Moon is Illuminated

Today's Extremes

Country Highs Country Lows

Community

WunderPhotos

Upload Photos

1,955,432 photos uploaded!

WunderBlog® & News

Nearby

Air Quality

  Air Quality AQ Index Pollutant
Not available.

Snow Depth

Station Depth Elevation

Earthquake Activity

City Distance Mag. Time & Date
Minimum magnitude displayed is 2.5.

Coastal Water Temperatures

Place Temperature

Stations

Nearby Weather Stations

Station Location Temp. Windchill Dew Point Humidity Wind Precip. Elev Updated Type